Time;durP1;ratioP1;P1;durP2;ratioP2;P2;SDS_P1;SDS_P2;PMS_P1;PMS_P2;Temp;Humidity;BMP_temperature;BMP_pressure;BME280_temperature;BME280_humidity;BME280_pressure;Samples;Min_cycle;Max_cycle;Signal;HPM_P1;HPM_P2
2022/05/19 00:00:00;;;;;;;29.73;17.60;;;;;;;21.13;68.69;101782.56;5075605;28;20079;-43
2022/05/19 00:02:25;;;;;;;27.15;18.17;;;;;;;21.07;68.35;101780.84;5076019;28;20036;-44
2022/05/19 00:04:51;;;;;;;25.92;17.70;;;;;;;21.11;68.45;101777.34;5073473;28;20032;-44
2022/05/19 00:07:18;;;;;;;27.80;19.67;;;;;;;21.08;68.24;101772.09;5076098;28;20040;-44
2022/05/19 00:09:44;;;;;;;23.55;17.38;;;;;;;21.08;68.11;101766.00;5074307;28;20403;-43
2022/05/19 00:12:22;;;;;;;28.58;18.60;;;;;;;21.02;68.78;101763.41;5074035;28;20023;-43
2022/05/19 00:14:48;;;;;;;26.80;18.60;;;;;;;20.97;68.46;101759.91;5074542;28;21172;-43
2022/05/19 00:17:13;;;;;;;27.95;17.70;;;;;;;21.02;68.61;101755.56;5077004;28;20476;-44
2022/05/19 00:19:39;;;;;;;26.05;18.48;;;;;;;21.04;68.69;101757.28;5074805;28;20028;-45
2022/05/19 00:22:05;;;;;;;28.90;17.98;;;;;;;20.99;68.84;101751.22;5074052;28;20121;-44
2022/05/19 00:24:31;;;;;;;28.42;19.23;;;;;;;20.96;68.82;101745.97;5074291;28;20051;-45
2022/05/19 00:26:57;;;;;;;27.65;18.55;;;;;;;20.94;69.10;101741.63;5078065;28;20031;-42
2022/05/19 00:29:22;;;;;;;25.48;18.55;;;;;;;20.97;68.82;101736.38;5077551;28;20024;-46
2022/05/19 00:31:48;;;;;;;24.45;17.48;;;;;;;20.94;68.95;101739.03;5073267;28;20115;-43
2022/05/19 00:34:13;;;;;;;29.08;18.77;;;;;;;20.89;68.96;101737.25;5075566;28;21056;-44
2022/05/19 00:36:38;;;;;;;27.85;18.45;;;;;;;20.88;69.32;101737.28;5076579;28;20033;-49
2022/05/19 00:39:04;;;;;;;30.00;18.67;;;;;;;20.84;69.81;101731.16;5074795;28;20032;-44
2022/05/19 00:41:30;;;;;;;28.38;19.23;;;;;;;20.82;69.38;101725.06;5075728;28;20515;-43
2022/05/19 00:44:04;;;;;;;25.88;18.65;;;;;;;20.79;69.60;101729.41;5073760;28;20044;-48
2022/05/19 00:46:48;;;;;;;26.60;18.83;;;;;;;20.84;69.40;101732.91;5077110;28;20051;-42
2022/05/19 00:49:25;;;;;;;31.45;18.40;;;;;;;20.82;68.96;101725.06;5077490;28;20054;-49
2022/05/19 00:51:57;;;;;;;27.35;18.95;;;;;;;20.82;69.28;101725.06;5077604;28;20081;-42
2022/05/19 00:54:56;;;;;;;25.52;18.35;;;;;;;20.89;68.96;101721.59;5072976;28;20048;-49
2022/05/19 00:57:23;;;;;;;;;;;;;;;20.99;68.05;101719.84;5051517;28;20043;-43
2022/05/19 00:59:57;;;;;;;29.02;18.60;;;;;;;20.77;69.51;101713.75;5074368;28;20406;-47
2022/05/19 01:02:27;;;;;;;23.67;18.10;;;;;;;20.76;70.03;101711.16;5076558;28;20133;-42
2022/05/19 01:04:55;;;;;;;27.95;18.48;;;;;;;20.73;69.94;101711.13;5070913;28;20105;-44
2022/05/19 01:07:27;;;;;;;25.17;17.90;;;;;;;20.73;69.64;101708.50;5076090;28;20103;-43
2022/05/19 01:09:54;;;;;;;28.00;18.27;;;;;;;20.69;70.28;101694.59;5075708;28;20547;-42
2022/05/19 01:12:21;;;;;;;27.65;18.38;;;;;;;20.70;70.05;101700.69;5075509;28;20136;-44
2022/05/19 01:14:46;;;;;;;28.27;18.70;;;;;;;20.65;69.94;101694.59;5072799;28;20043;-44
2022/05/19 01:17:12;;;;;;;26.88;18.25;;;;;;;20.67;70.42;101685.88;5075892;28;20024;-43
2022/05/19 01:19:44;;;;;;;27.92;18.60;;;;;;;20.65;70.18;101686.75;5071799;28;20037;-45
2022/05/19 01:22:30;;;;;;;25.00;18.40;;;;;;;20.68;69.69;101687.59;5074695;28;20025;-45
2022/05/19 01:25:12;;;;;;;24.98;18.80;;;;;;;20.63;70.47;101681.53;5071950;28;20030;-43
2022/05/19 01:27:38;;;;;;;26.92;18.90;;;;;;;20.48;70.95;101673.69;5075256;28;20028;-47
2022/05/19 01:30:07;;;;;;;29.33;19.17;;;;;;;20.51;70.90;101665.84;5073430;28;20036;-44
2022/05/19 01:32:32;;;;;;;27.58;19.00;;;;;;;20.48;70.97;101660.63;5074829;28;20051;-45
2022/05/19 01:34:59;;;;;;;27.75;19.40;;;;;;;20.48;70.87;101658.88;5072649;28;20588;-48
2022/05/19 01:37:25;;;;;;;27.02;20.20;;;;;;;20.49;71.43;101660.59;5071461;28;20066;-45
2022/05/19 01:39:56;;;;;;;27.85;20.23;;;;;;;20.47;71.38;101653.66;5071530;28;20036;-43
2022/05/19 01:42:48;;;;;;;34.55;20.63;;;;;;;20.53;70.95;101651.03;5074429;28;20039;-46
2022/05/19 01:45:49;;;;;;;28.77;21.35;;;;;;;20.53;70.84;101646.69;5073148;28;20664;-42
2022/05/19 01:48:23;;;;;;;29.35;20.42;;;;;;;20.47;71.74;101646.69;5051826;28;20036;-42
2022/05/19 01:51:10;;;;;;;29.27;21.30;;;;;;;20.51;71.20;101655.41;5076816;28;20024;-42
2022/05/19 01:54:20;;;;;;;31.27;20.92;;;;;;;20.50;71.30;101651.03;5070539;28;20064;-44
2022/05/19 01:56:55;;;;;;;32.45;21.73;;;;;;;20.44;71.30;101657.09;5027375;28;20048;-42
2022/05/19 01:59:39;;;;;;;28.88;20.73;;;;;;;20.38;72.14;101646.63;5074998;28;20048;-47
2022/05/19 02:02:19;;;;;;;30.85;20.45;;;;;;;20.36;71.96;101649.25;5071901;28;20111;-42
2022/05/19 02:05:15;;;;;;;27.73;20.95;;;;;;;20.41;71.61;101645.78;5073048;28;20035;-44
2022/05/19 02:07:45;;;;;;;29.45;21.08;;;;;;;20.33;72.45;101638.81;5060940;28;20036;-45
2022/05/19 02:10:16;;;;;;;31.80;21.20;;;;;;;20.29;72.35;101644.91;5073895;28;20728;-44
2022/05/19 02:12:43;;;;;;;29.13;21.33;;;;;;;20.27;72.91;101636.22;5074145;28;20039;-46
2022/05/19 02:15:13;;;;;;;31.30;21.63;;;;;;;20.25;73.03;101632.72;5073270;28;20032;-48
2022/05/19 02:17:40;;;;;;;26.98;20.95;;;;;;;20.17;73.49;101638.81;5075590;28;20028;-46
2022/05/19 02:20:12;;;;;;;34.15;21.75;;;;;;;20.23;72.83;101637.06;5074608;28;20040;-46
2022/05/19 02:22:40;;;;;;;28.70;20.90;;;;;;;20.22;73.24;101651.00;5076109;28;20032;-43
2022/05/19 02:25:11;;;;;;;32.63;22.00;;;;;;;20.16;73.92;101640.56;5070582;28;20028;-43
2022/05/19 02:27:42;;;;;;;30.33;21.45;;;;;;;20.18;73.71;101640.53;5075346;28;20031;-46
2022/05/19 02:30:12;;;;;;;29.48;21.42;;;;;;;20.13;73.75;101645.75;5072698;28;20043;-45
2022/05/19 02:32:38;;;;;;;32.92;21.73;;;;;;;20.11;74.36;101641.41;5073995;28;21453;-43
2022/05/19 02:35:05;;;;;;;27.55;21.73;;;;;;;20.14;74.03;101639.66;5073844;28;20500;-45
2022/05/19 02:37:31;;;;;;;29.38;21.35;;;;;;;20.06;74.19;101641.41;5077184;28;20048;-44
2022/05/19 02:39:57;;;;;;;30.02;22.00;;;;;;;20.02;74.12;101645.78;5074660;28;20115;-42
2022/05/19 02:42:22;;;;;;;27.77;21.10;;;;;;;20.05;74.19;101647.50;5076643;28;20439;-45
2022/05/19 02:44:48;;;;;;;30.30;22.63;;;;;;;20.05;74.23;101647.50;5079799;28;20032;-43
2022/05/19 02:47:13;;;;;;;31.00;22.38;;;;;;;20.06;74.18;101657.06;5078587;28;21007;-46
2022/05/19 02:49:38;;;;;;;28.83;21.85;;;;;;;20.02;74.68;101653.59;5076331;28;20082;-44
2022/05/19 02:52:04;;;;;;;32.53;22.65;;;;;;;20.03;75.00;101657.09;5078869;28;20055;-44
2022/05/19 02:54:30;;;;;;;31.15;22.35;;;;;;;20.00;74.44;101664.88;5078342;28;20063;-46
2022/05/19 02:56:55;;;;;;;27.08;21.77;;;;;;;19.99;74.96;101671.84;5078163;28;20075;-46
2022/05/19 02:59:20;;;;;;;28.52;20.88;;;;;;;19.99;75.61;101681.44;5077028;28;20084;-45
2022/05/19 03:01:46;;;;;;;31.65;21.88;;;;;;;19.97;75.71;101710.16;5076794;28;20757;-44
2022/05/19 03:04:11;;;;;;;30.98;21.23;;;;;;;20.00;75.24;101796.28;5076473;28;20078;-43
2022/05/19 03:06:37;;;;;;;28.48;22.20;;;;;;;19.95;75.73;101790.16;5078086;28;20587;-47
2022/05/19 03:09:04;;;;;;;28.10;22.70;;;;;;;19.92;76.04;101773.66;5077224;28;20032;-46
2022/05/19 03:11:30;;;;;;;24.02;16.63;;;;;;;19.99;72.68;101805.00;5076670;28;20032;-43
2022/05/19 03:13:55;;;;;;;22.25;16.77;;;;;;;20.08;71.98;101819.81;5078454;28;20516;-43
2022/05/19 03:16:20;;;;;;;20.92;17.15;;;;;;;20.18;72.51;101816.38;5074108;28;20047;-43
2022/05/19 03:18:46;;;;;;;23.70;17.38;;;;;;;20.22;72.51;101807.69;5078104;28;20036;-45
2022/05/19 03:21:11;;;;;;;26.80;17.15;;;;;;;20.27;72.47;101803.38;5074836;28;20046;-45
2022/05/19 03:23:36;;;;;;;27.67;17.30;;;;;;;20.31;72.97;101817.28;5075820;28;20024;-43
2022/05/19 03:26:02;;;;;;;23.15;16.70;;;;;;;20.32;72.64;101819.03;5077585;28;20123;-43
2022/05/19 03:28:28;;;;;;;21.73;15.32;;;;;;;20.40;72.89;101811.22;5079663;28;20393;-46
2022/05/19 03:30:54;;;;;;;22.15;15.77;;;;;;;20.39;73.07;101815.59;5078010;28;20043;-42
2022/05/19 03:33:19;;;;;;;19.45;15.27;;;;;;;20.43;73.38;101811.22;5078383;28;20514;-47
2022/05/19 03:35:45;;;;;;;22.63;14.75;;;;;;;20.44;73.45;101807.75;5077921;28;20399;-43
2022/05/19 03:38:11;;;;;;;19.92;14.52;;;;;;;20.46;73.25;101812.16;5075622;28;20039;-45
2022/05/19 03:40:37;;;;;;;23.90;14.50;;;;;;;20.47;73.98;101808.66;5074376;28;20043;-42
2022/05/19 03:43:02;;;;;;;21.08;14.52;;;;;;;20.46;74.36;101800.84;5074927;28;20032;-43
2022/05/19 03:45:28;;;;;;;20.70;14.15;;;;;;;20.46;74.68;101803.44;5077140;28;20396;-44
2022/05/19 03:47:53;;;;;;;22.75;15.45;;;;;;;20.46;75.37;101804.31;5076041;28;20125;-46
2022/05/19 03:50:19;;;;;;;23.52;15.30;;;;;;;20.46;75.11;101812.16;5077626;28;20032;-43
2022/05/19 03:52:44;;;;;;;19.27;15.02;;;;;;;20.44;75.84;101808.59;5076503;28;20032;-43
2022/05/19 03:55:12;;;;;;;21.13;15.75;;;;;;;20.43;76.00;101813.84;5077537;28;20020;-44
2022/05/19 03:57:38;;;;;;;24.75;15.77;;;;;;;20.45;75.74;101823.47;5074572;28;20024;-45
2022/05/19 04:00:05;;;;;;;17.80;14.30;;;;;;;20.46;75.58;101808.66;5075808;28;20439;-45
2022/05/19 04:02:30;;;;;;;22.73;15.70;;;;;;;20.42;75.05;101793.81;5074680;28;20948;-43
2022/05/19 04:04:56;;;;;;;15.82;13.18;;;;;;;20.43;75.46;101821.66;5075978;28;20052;-43
2022/05/19 04:07:22;;;;;;;16.00;12.45;;;;;;;20.43;75.25;101819.06;5075748;28;20043;-46
2022/05/19 04:09:47;;;;;;;14.63;12.23;;;;;;;20.39;75.89;101831.25;5077588;28;20107;-43
2022/05/19 04:12:14;;;;;;;20.85;12.50;;;;;;;20.43;75.69;101832.13;5069103;28;20028;-49
2022/05/19 04:14:40;;;;;;;13.82;11.27;;;;;;;20.42;75.69;101838.22;5075665;28;20120;-44
2022/05/19 04:17:05;;;;;;;13.45;10.65;;;;;;;20.42;75.88;101836.47;5073390;28;21028;-44
2022/05/19 04:19:30;;;;;;;16.77;10.82;;;;;;;20.41;75.84;101839.97;5069321;28;20118;-45
2022/05/19 04:21:56;;;;;;;14.77;10.45;;;;;;;20.43;76.19;101825.16;5074241;28;20391;-42
2022/05/19 04:24:21;;;;;;;15.85;10.77;;;;;;;20.39;76.23;101839.09;5075229;28;20112;-43
2022/05/19 04:26:49;;;;;;;18.27;11.38;;;;;;;20.41;76.01;101833.88;5077198;28;20093;-46
2022/05/19 04:29:14;;;;;;;14.63;10.77;;;;;;;20.40;75.93;101834.75;5077184;28;20111;-42
2022/05/19 04:31:39;;;;;;;13.73;10.25;;;;;;;20.41;76.39;101831.25;5072227;28;20126;-43
2022/05/19 04:34:06;;;;;;;12.07;9.73;;;;;;;20.35;76.44;101832.97;5071300;28;20036;-49
2022/05/19 04:36:32;;;;;;;13.13;10.32;;;;;;;20.33;77.28;101834.72;5074690;28;20516;-44
2022/05/19 04:38:57;;;;;;;15.10;10.18;;;;;;;20.32;77.09;101834.69;5070414;28;20032;-43
2022/05/19 04:41:22;;;;;;;15.73;10.25;;;;;;;20.30;77.17;101826.00;5074203;28;20155;-44
2022/05/19 04:43:48;;;;;;;13.85;9.93;;;;;;;20.35;77.29;101822.53;5074262;28;20036;-44
2022/05/19 04:46:13;;;;;;;14.23;9.32;;;;;;;20.36;76.77;101811.22;5071841;28;20120;-43
2022/05/19 04:48:38;;;;;;;12.38;9.18;;;;;;;20.36;76.91;101824.28;5071818;28;20119;-43
2022/05/19 04:51:04;;;;;;;11.30;7.93;;;;;;;20.38;76.14;101824.25;5071120;28;20063;-43
2022/05/19 04:53:30;;;;;;;8.32;6.63;;;;;;;20.35;75.28;101830.38;5071887;28;20111;-44
2022/05/19 04:55:56;;;;;;;8.63;6.28;;;;;;;20.36;75.31;101819.03;5072706;28;20040;-49
2022/05/19 04:58:22;;;;;;;9.57;6.28;;;;;;;20.36;75.31;101821.66;5074451;28;20742;-46
2022/05/19 05:00:48;;;;;;;8.82;6.03;;;;;;;20.31;75.87;101814.66;5072573;28;20050;-44
2022/05/19 05:03:14;;;;;;;9.68;6.07;;;;;;;20.39;75.05;101814.72;5069752;28;20032;-42
2022/05/19 05:05:39;;;;;;;9.82;5.90;;;;;;;20.38;75.40;101824.25;5073101;28;20032;-43
2022/05/19 05:08:05;;;;;;;10.40;5.93;;;;;;;20.35;75.39;101813.81;5070878;28;20032;-42
2022/05/19 05:10:30;;;;;;;9.07;6.47;;;;;;;20.31;75.48;101797.25;5072620;28;20031;-43
2022/05/19 05:12:56;;;;;;;10.88;5.72;;;;;;;20.32;74.79;101798.13;5068935;28;20063;-48
2022/05/19 05:15:21;;;;;;;9.13;5.90;;;;;;;20.33;76.20;101818.19;5072560;28;20028;-44
2022/05/19 05:17:47;;;;;;;9.68;5.45;;;;;;;20.33;76.46;101824.28;5074645;28;20039;-43
2022/05/19 05:20:13;;;;;;;8.50;5.20;;;;;;;20.32;76.00;101821.63;5074406;28;20028;-43
2022/05/19 05:22:39;;;;;;;9.25;5.15;;;;;;;20.26;76.05;101809.47;5073310;28;20492;-43
2022/05/19 05:25:11;;;;;;;10.02;5.05;;;;;;;20.29;75.83;101808.59;5074028;28;20054;-47
2022/05/19 05:27:37;;;;;;;10.95;5.38;;;;;;;20.23;77.26;101809.44;5073684;28;20085;-49
2022/05/19 05:30:04;;;;;;;11.65;5.60;;;;;;;20.25;77.66;101793.75;5075475;28;20024;-43
2022/05/19 05:32:30;;;;;;;12.45;5.72;;;;;;;20.15;79.29;101781.56;5075251;28;20603;-42
2022/05/19 05:34:55;;;;;;;13.15;6.22;;;;;;;20.09;80.41;101735.41;5075613;28;20098;-44
2022/05/19 05:37:21;;;;;;;13.18;5.47;;;;;;;20.04;81.38;101727.56;5076047;28;20042;-45
2022/05/19 05:39:46;;;;;;;10.43;5.60;;;;;;;20.03;81.32;101731.03;5075200;28;20036;-44
2022/05/19 05:42:12;;;;;;;10.20;4.97;;;;;;;19.99;81.67;101717.97;5074511;28;20138;-43
2022/05/19 05:44:37;;;;;;;10.07;4.68;;;;;;;20.01;82.06;101690.13;5075837;28;20056;-43
2022/05/19 05:47:03;;;;;;;7.25;5.00;;;;;;;19.93;82.56;101668.38;5074959;28;20077;-42
2022/05/19 05:49:28;;;;;;;10.38;5.07;;;;;;;19.88;82.68;101649.19;5075337;28;20031;-45
2022/05/19 05:51:54;;;;;;;8.85;5.10;;;;;;;19.95;82.88;101670.09;5075140;28;20036;-49
2022/05/19 05:54:19;;;;;;;6.53;4.90;;;;;;;19.91;81.48;101699.69;5077113;28;20463;-46
2022/05/19 05:56:44;;;;;;;8.68;5.07;;;;;;;19.93;83.18;101707.50;5077698;28;21020;-49
2022/05/19 05:59:10;;;;;;;8.80;5.13;;;;;;;19.90;83.17;101715.31;5075584;28;20028;-44
2022/05/19 06:01:36;;;;;;;8.82;5.15;;;;;;;19.92;84.12;101705.78;5071129;28;20040;-43
2022/05/19 06:04:02;;;;;;;12.02;5.05;;;;;;;19.80;81.89;101684.00;5075588;28;20055;-46
2022/05/19 06:06:28;;;;;;;8.98;5.22;;;;;;;19.82;83.20;101695.28;5076038;28;21661;-43
2022/05/19 06:08:53;;;;;;;6.78;4.72;;;;;;;19.85;83.63;101686.63;5073708;28;20024;-48
2022/05/19 06:11:19;;;;;;;12.00;5.30;;;;;;;19.83;84.70;101678.75;5072860;28;20444;-43
2022/05/19 06:13:44;;;;;;;10.07;5.85;;;;;;;19.86;85.12;101687.50;5069034;28;20051;-43
2022/05/19 06:16:11;;;;;;;11.73;5.90;;;;;;;19.87;85.42;101704.88;5074680;28;20843;-46
2022/05/19 06:18:37;;;;;;;9.63;6.30;;;;;;;19.88;84.02;101691.84;5080476;28;20032;-42
2022/05/19 06:21:04;;;;;;;10.10;6.20;;;;;;;19.84;85.11;101697.94;5076567;28;20384;-42
2022/05/19 06:23:29;;;;;;;13.27;6.45;;;;;;;19.87;85.06;101718.81;5080146;28;20032;-46
2022/05/19 06:25:55;;;;;;;10.68;6.90;;;;;;;19.88;86.41;101719.69;5074157;28;20063;-48
2022/05/19 06:28:20;;;;;;;13.57;7.05;;;;;;;19.93;87.33;101713.59;5076352;28;20059;-46
2022/05/19 06:30:46;;;;;;;10.32;6.50;;;;;;;19.99;84.29;101718.84;5079142;28;20046;-44
2022/05/19 06:33:12;;;;;;;11.68;7.70;;;;;;;19.99;85.74;101718.84;5077952;28;20480;-44
2022/05/19 06:35:38;;;;;;;12.02;7.20;;;;;;;20.01;84.10;101724.94;5076299;28;20139;-46
2022/05/19 06:38:04;;;;;;;11.20;7.68;;;;;;;20.04;86.09;101711.91;5076977;28;20561;-46
2022/05/19 06:40:31;;;;;;;11.20;7.72;;;;;;;20.05;87.71;101711.03;5078175;28;20025;-42
2022/05/19 06:42:57;;;;;;;12.30;8.20;;;;;;;20.07;85.91;101711.88;5078150;28;20034;-43
2022/05/19 06:45:26;;;;;;;15.23;9.05;;;;;;;20.11;85.12;101707.56;5078022;28;20020;-45
2022/05/19 06:47:52;;;;;;;11.38;8.23;;;;;;;20.16;84.46;101715.41;5079802;28;20040;-46
2022/05/19 06:50:19;;;;;;;10.00;8.30;;;;;;;20.16;83.93;101716.28;5077257;28;20037;-43
2022/05/19 06:52:53;;;;;;;14.38;8.10;;;;;;;20.24;83.72;101706.72;5076483;28;20035;-44
2022/05/19 06:55:21;;;;;;;13.65;8.65;;;;;;;20.22;85.58;101698.00;5078243;28;20163;-43
2022/05/19 06:57:47;;;;;;;13.63;9.37;;;;;;;20.24;85.18;101701.47;5072842;28;20024;-46
2022/05/19 07:00:19;;;;;;;12.50;9.32;;;;;;;20.22;85.84;101697.16;5075935;28;20488;-45
2022/05/19 07:02:47;;;;;;;14.20;9.48;;;;;;;20.23;83.39;101686.69;5077070;28;20490;-45
2022/05/19 07:05:13;;;;;;;12.93;8.85;;;;;;;20.23;82.96;101694.53;5071294;28;20028;-44
2022/05/19 07:07:39;;;;;;;15.85;10.13;;;;;;;20.20;83.16;101694.50;5075818;28;20044;-45
2022/05/19 07:10:05;;;;;;;14.30;10.10;;;;;;;20.30;83.88;101700.63;5078770;28;20085;-46
2022/05/19 07:12:31;;;;;;;11.75;9.88;;;;;;;20.32;84.34;101693.66;5090583;28;20059;-43
2022/05/19 07:14:56;;;;;;;11.40;9.55;;;;;;;20.36;81.27;101695.41;5071973;28;20048;-43
2022/05/19 07:17:22;;;;;;;17.50;10.07;;;;;;;20.34;82.18;101684.97;5071341;28;20033;-43
2022/05/19 07:22:33;;;;;;;12.23;9.73;;;;;;;20.40;81.98;101676.28;5077853;28;20177;-47
2022/05/19 07:25:01;;;;;;;13.93;10.10;;;;;;;20.42;82.79;101673.66;5076468;28;20031;-45
2022/05/19 07:27:27;;;;;;;10.43;8.65;;;;;;;20.49;79.54;101675.41;5074299;28;20032;-46
2022/05/19 07:29:52;;;;;;;15.98;9.32;;;;;;;20.51;82.25;101668.47;5077528;28;20035;-43
2022/05/19 07:32:21;;;;;;;13.40;9.52;;;;;;;20.60;81.39;101673.69;5077802;28;21084;-44
2022/05/19 07:34:47;;;;;;;11.93;9.68;;;;;;;20.67;81.96;101675.41;5077007;28;20059;-43
2022/05/19 07:37:13;;;;;;;12.45;8.45;;;;;;;20.78;79.66;101668.44;5076336;28;20027;-46
2022/05/19 07:39:38;;;;;;;11.77;8.32;;;;;;;20.91;79.22;101668.41;5060106;28;20117;-43
2022/05/19 07:42:04;;;;;;;11.50;9.57;;;;;;;21.01;77.54;101668.41;5072822;28;20078;-43
2022/05/19 07:44:30;;;;;;;15.68;10.13;;;;;;;21.13;78.10;101671.00;5089785;28;20046;-44
2022/05/19 07:46:56;;;;;;;13.00;9.70;;;;;;;21.25;78.29;101672.69;5079486;28;20036;-46
2022/05/19 07:49:21;;;;;;;13.02;9.52;;;;;;;21.41;77.33;101684.00;5077757;28;20044;-45
2022/05/19 07:51:47;;;;;;;15.00;11.43;;;;;;;21.46;76.20;101697.06;5078227;28;20064;-48
2022/05/19 07:54:18;;;;;;;13.55;11.23;;;;;;;21.57;76.25;101700.50;5076133;28;20040;-44
2022/05/19 07:56:44;;;;;;;17.95;12.27;;;;;;;21.68;76.91;101704.84;5075636;28;20611;-44
2022/05/19 07:59:10;;;;;;;16.38;12.27;;;;;;;21.81;76.34;101695.16;5077769;28;20111;-46
2022/05/19 08:01:38;;;;;;;15.40;11.90;;;;;;;21.97;75.44;101698.59;5077909;28;20083;-43
2022/05/19 08:04:05;;;;;;;14.70;12.43;;;;;;;22.07;75.47;101699.38;5078932;28;20024;-44
2022/05/19 08:06:31;;;;;;;17.88;13.45;;;;;;;22.15;72.41;101702.88;5080788;28;20032;-42
2022/05/19 08:08:58;;;;;;;16.83;11.00;;;;;;;22.27;72.33;101700.19;5077175;28;20464;-45
2022/05/19 08:11:24;;;;;;;14.20;12.20;;;;;;;22.36;72.06;101699.22;5078815;28;20032;-43
2022/05/19 08:16:33;;;;;;;14.98;13.35;;;;;;;22.61;71.34;101686.78;5075750;28;20125;-43
2022/05/19 08:18:59;;;;;;;17.67;12.93;;;;;;;22.73;71.53;101692.78;5080136;28;20081;-45
2022/05/19 08:21:24;;;;;;;15.65;12.65;;;;;;;22.83;69.42;101683.09;5079050;28;20035;-44
2022/05/19 08:23:53;;;;;;;13.85;11.90;;;;;;;22.91;68.74;101680.44;5080146;28;20090;-42
2022/05/19 08:26:20;;;;;;;16.58;12.57;;;;;;;23.01;68.06;101675.06;5079596;28;20492;-45
2022/05/19 08:28:48;;;;;;;18.95;12.88;;;;;;;23.10;66.78;101670.59;5077984;28;20032;-44
2022/05/19 08:31:22;;;;;;;14.85;12.65;;;;;;;23.21;68.46;101668.75;5075937;28;20039;-46
2022/05/19 08:33:49;;;;;;;16.75;12.50;;;;;;;23.31;68.19;101666.88;5076059;28;20028;-45
2022/05/19 08:36:15;;;;;;;15.30;11.82;;;;;;;23.44;68.01;101665.84;5078557;28;20036;-45
2022/05/19 08:38:42;;;;;;;14.23;12.25;;;;;;;23.57;67.30;101671.81;5053218;28;20511;-43
2022/05/19 08:41:13;;;;;;;13.93;11.20;;;;;;;23.65;64.73;101672.59;5078008;28;20035;-43
2022/05/19 08:43:50;;;;;;;13.52;10.57;;;;;;;23.70;64.59;101673.41;5073351;28;20486;-43
2022/05/19 08:46:21;;;;;;;12.82;9.95;;;;;;;23.79;63.88;101674.16;5076310;28;20125;-44
2022/05/19 08:48:52;;;;;;;13.68;11.25;;;;;;;23.88;62.50;101673.16;5072495;28;20150;-43
2022/05/19 08:51:18;;;;;;;13.95;10.70;;;;;;;23.99;64.24;101675.63;5078820;28;20027;-43
2022/05/19 08:53:44;;;;;;;14.55;11.57;;;;;;;24.02;63.66;101665.06;5077428;28;20407;-46
2022/05/19 08:56:10;;;;;;;17.15;11.45;;;;;;;24.08;62.15;101665.84;5081095;28;20025;-43
2022/05/19 08:58:45;;;;;;;13.90;11.85;;;;;;;24.15;63.29;101660.53;5076550;28;20396;-45
2022/05/19 09:01:24;;;;;;;12.75;9.55;;;;;;;24.19;62.95;101659.56;5080796;28;20489;-43
2022/05/19 09:03:58;;;;;;;13.40;9.20;;;;;;;24.27;62.63;101657.69;5078151;28;20031;-43
2022/05/19 09:06:26;;;;;;;12.38;8.15;;;;;;;24.35;61.34;101658.47;5075712;28;20032;-44
2022/05/19 09:09:16;;;;;;;13.02;7.65;;;;;;;24.43;61.00;101667.06;5079841;28;20107;-47
2022/05/19 09:11:55;;;;;;;16.83;8.35;;;;;;;24.43;59.22;101655.69;5077875;28;20498;-46
2022/05/19 09:14:28;;;;;;;12.07;7.97;;;;;;;24.51;58.73;101662.59;5073428;28;20435;-44
2022/05/19 09:17:01;;;;;;;10.90;8.00;;;;;;;24.59;58.45;101654.56;5076520;28;20465;-43
2022/05/19 09:20:08;;;;;;;10.65;7.53;;;;;;;24.69;59.50;101647.34;5076725;28;20028;-47
2022/05/19 09:22:34;;;;;;;9.93;6.88;;;;;;;24.79;59.04;101643.66;5078568;28;20063;-48
2022/05/19 09:25:06;;;;;;;13.50;7.20;;;;;;;24.82;57.94;101635.72;5075330;28;20028;-44
2022/05/19 09:27:36;;;;;;;11.35;7.38;;;;;;;24.77;57.27;101641.06;5078105;28;20024;-44
2022/05/19 09:30:02;;;;;;;10.18;7.20;;;;;;;24.76;57.13;101641.09;5078075;28;20024;-45
2022/05/19 09:32:29;;;;;;;12.95;7.22;;;;;;;24.75;56.98;101644.59;5076718;28;20040;-48
2022/05/19 09:35:24;;;;;;;9.35;6.65;;;;;;;24.79;58.59;101643.66;5077295;28;20028;-45
2022/05/19 09:38:02;;;;;;;11.70;6.85;;;;;;;24.76;58.65;101641.97;5052918;28;20044;-48
2022/05/19 09:40:30;;;;;;;9.52;6.25;;;;;;;24.76;56.95;101643.75;5077011;28;20503;-44
2022/05/19 09:43:09;;;;;;;8.73;6.93;;;;;;;24.74;57.18;101650.75;5079448;28;20122;-47
2022/05/19 09:45:43;;;;;;;10.13;6.15;;;;;;;24.74;57.94;101656.88;5073943;28;20398;-44
2022/05/19 09:48:09;;;;;;;11.13;5.93;;;;;;;24.73;56.51;101660.41;5074788;28;20107;-44
2022/05/19 09:50:44;;;;;;;9.30;6.80;;;;;;;24.74;56.79;101653.41;5081007;28;20028;-44
2022/05/19 09:53:36;;;;;;;8.43;6.10;;;;;;;24.72;57.66;101647.31;5076794;28;20036;-45
2022/05/19 09:56:07;;;;;;;9.90;6.00;;;;;;;24.76;57.19;101643.75;5080224;28;20035;-47
2022/05/19 09:58:38;;;;;;;7.60;5.88;;;;;;;24.81;56.52;101644.50;5079863;28;20028;-48
2022/05/19 10:01:17;;;;;;;12.32;6.88;;;;;;;24.81;57.47;101631.34;5078115;28;20309;-44
2022/05/19 10:03:48;;;;;;;10.13;5.80;;;;;;;24.90;57.16;101633.81;5077302;28;20051;-45
2022/05/19 10:06:33;;;;;;;10.63;5.78;;;;;;;24.94;57.43;101626.75;5078752;28;20020;-45
2022/05/19 10:09:07;;;;;;;10.32;5.88;;;;;;;24.98;56.54;101615.25;5077404;28;20051;-45
2022/05/19 10:11:33;;;;;;;8.70;5.75;;;;;;;25.16;56.03;101616.66;5078508;28;20683;-44
2022/05/19 10:14:14;;;;;;;8.50;5.70;;;;;;;25.27;56.54;101602.38;5076441;28;20036;-45
2022/05/19 10:16:50;;;;;;;6.57;5.30;;;;;;;25.41;56.37;101588.91;5080879;28;20024;-48
2022/05/19 10:19:28;;;;;;;9.70;5.32;;;;;;;25.55;56.04;101583.38;5078678;28;20035;-55
2022/05/19 10:22:06;;;;;;;9.48;5.40;;;;;;;25.66;55.81;101578.69;5078691;28;20031;-44
2022/05/19 10:24:34;;;;;;;8.13;5.05;;;;;;;25.81;56.23;101580.16;5078538;28;20028;-53
2022/05/19 10:33:04;;;;;;;9.75;5.45;;;;;;;25.74;53.54;101570.66;5078709;28;20135;-44
2022/05/19 10:35:54;;;;;;;11.80;5.25;;;;;;;25.74;54.17;101573.31;5075607;28;20024;-46
2022/05/19 10:38:37;;;;;;;11.07;5.25;;;;;;;25.88;53.83;101565.91;5077452;28;20028;-49
2022/05/19 10:41:28;;;;;;;13.18;5.00;;;;;;;26.00;54.60;101570.88;5076849;28;20032;-50
2022/05/19 10:44:17;;;;;;;6.35;4.40;;;;;;;26.08;54.55;101584.72;5079407;28;20107;-53
2022/05/19 10:47:04;;;;;;;10.75;4.40;;;;;;;26.06;52.54;101586.56;5075715;28;20028;-51
2022/05/19 10:49:46;;;;;;;8.38;3.88;;;;;;;26.04;52.15;101580.47;5081940;28;20492;-47
2022/05/19 10:52:27;;;;;;;6.55;3.88;;;;;;;26.04;51.64;101569.06;5081091;28;20054;-50
2022/05/19 10:55:22;;;;;;;5.40;3.63;;;;;;;26.02;52.64;101573.47;5076780;28;20039;-52
2022/05/19 10:58:16;;;;;;;10.18;3.75;;;;;;;26.02;51.48;101576.13;5077876;28;20016;-51
2022/05/19 11:00:54;;;;;;;7.32;3.47;;;;;;;26.05;52.37;101574.28;5053302;28;20550;-50
2022/05/19 11:03:29;;;;;;;7.13;3.90;;;;;;;26.01;50.94;101582.28;5079008;28;20101;-51
2022/05/19 11:06:03;;;;;;;6.18;3.47;;;;;;;25.92;51.35;101578.13;5077821;28;20085;-52
2022/05/19 11:08:43;;;;;;;12.50;3.80;;;;;;;25.92;51.29;101579.00;5079372;28;20705;-51
2022/05/19 11:11:23;;;;;;;9.43;3.40;;;;;;;25.85;51.10;101568.66;5076352;28;20043;-49
2022/05/19 11:13:56;;;;;;;11.32;3.90;;;;;;;25.84;51.98;101573.03;5077510;28;20028;-47
2022/05/19 11:16:27;;;;;;;7.45;4.20;;;;;;;25.77;51.66;101568.81;5072884;28;20090;-52
2022/05/19 11:19:02;;;;;;;6.00;3.75;;;;;;;25.73;52.05;101563.63;5071677;28;20028;-50
2022/05/19 11:21:48;;;;;;;7.78;3.65;;;;;;;25.69;53.11;101549.66;5077803;28;20032;-52
2022/05/19 11:26:23;;;;;;;7.80;4.05;;;;;;;25.63;53.20;101555.06;5074741;28;20060;-47
2022/05/19 11:27:30;;;;;;;7.57;3.20;;;;;;;25.55;54.23;101573.69;5072123;28;20272;-50
2022/05/19 11:30:01;;;;;;;6.20;3.55;;;;;;;25.52;54.28;101586.06;5076827;28;20027;-50
2022/05/19 11:32:33;;;;;;;5.78;3.35;;;;;;;25.40;54.46;101595.94;5074576;28;20032;-53
2022/05/19 11:35:07;;;;;;;7.43;3.50;;;;;;;25.38;56.06;101602.16;5076313;28;20032;-51
2022/05/19 11:37:59;;;;;;;8.13;3.60;;;;;;;25.35;56.31;101603.06;5073047;28;20032;-51